sensor_id;sensor_type;location;lat;lon;timestamp;temperature;humidity
65038;DHT22;51605;47.040;15.294;2022-09-09T00:00:41;24.10;58.70
65038;DHT22;51605;47.040;15.294;2022-09-09T00:03:22;24.10;58.60
65038;DHT22;51605;47.040;15.294;2022-09-09T00:06:02;24.20;58.60
65038;DHT22;51605;47.040;15.294;2022-09-09T00:11:05;24.10;58.70
65038;DHT22;51605;47.040;15.294;2022-09-09T00:13:35;24.10;58.60
65038;DHT22;51605;47.040;15.294;2022-09-09T00:16:15;24.10;58.70
65038;DHT22;51605;47.040;15.294;2022-09-09T00:21:37;24.10;58.70
65038;DHT22;51605;47.040;15.294;2022-09-09T00:26:55;24.10;58.80
65038;DHT22;51605;47.040;15.294;2022-09-09T00:29:33;24.10;58.80
65038;DHT22;51605;47.040;15.294;2022-09-09T00:32:24;24.10;58.70
65038;DHT22;51605;47.040;15.294;2022-09-09T00:35:13;24.10;58.80
65038;DHT22;51605;47.040;15.294;2022-09-09T00:37:42;24.10;58.70
65038;DHT22;51605;47.040;15.294;2022-09-09T00:40:23;24.10;58.70
65038;DHT22;51605;47.040;15.294;2022-09-09T00:43:36;24.10;58.80
65038;DHT22;51605;47.040;15.294;2022-09-09T00:48:43;24.10;58.70
65038;DHT22;51605;47.040;15.294;2022-09-09T00:51:22;24.10;58.70
65038;DHT22;51605;47.040;15.294;2022-09-09T00:54:01;24.10;58.60
65038;DHT22;51605;47.040;15.294;2022-09-09T00:56:38;24.10;58.60
65038;DHT22;51605;47.040;15.294;2022-09-09T01:01:55;24.10;58.50
65038;DHT22;51605;47.040;15.294;2022-09-09T01:04:34;24.10;58.50
65038;DHT22;51605;47.040;15.294;2022-09-09T01:07:14;24.10;58.50
65038;DHT22;51605;47.040;15.294;2022-09-09T01:09:52;24.10;58.50
65038;DHT22;51605;47.040;15.294;2022-09-09T01:12:41;24.10;58.60
65038;DHT22;51605;47.040;15.294;2022-09-09T01:15:24;24.10;58.60
65038;DHT22;51605;47.040;15.294;2022-09-09T01:18:05;24.10;58.70
65038;DHT22;51605;47.040;15.294;2022-09-09T01:20:44;24.10;58.50
65038;DHT22;51605;47.040;15.294;2022-09-09T01:28:33;24.10;58.50
65038;DHT22;51605;47.040;15.294;2022-09-09T01:31:03;24.10;58.40
65038;DHT22;51605;47.040;15.294;2022-09-09T01:33:29;24.10;58.40
65038;DHT22;51605;47.040;15.294;2022-09-09T01:36:09;24.10;58.40
65038;DHT22;51605;47.040;15.294;2022-09-09T01:38:37;24.10;58.40
65038;DHT22;51605;47.040;15.294;2022-09-09T01:41:03;24.10;58.40
65038;DHT22;51605;47.040;15.294;2022-09-09T01:43:30;24.10;58.40
65038;DHT22;51605;47.040;15.294;2022-09-09T01:45:59;24.10;58.40
65038;DHT22;51605;47.040;15.294;2022-09-09T01:48:25;24.10;58.30
65038;DHT22;51605;47.040;15.294;2022-09-09T01:50:51;24.10;58.20
65038;DHT22;51605;47.040;15.294;2022-09-09T01:53:18;24.10;58.20
65038;DHT22;51605;47.040;15.294;2022-09-09T01:55:47;24.10;58.20
65038;DHT22;51605;47.040;15.294;2022-09-09T02:00:45;24.20;58.10
65038;DHT22;51605;47.040;15.294;2022-09-09T02:03:29;24.20;58.10
65038;DHT22;51605;47.040;15.294;2022-09-09T02:06:23;24.20;58.00
65038;DHT22;51605;47.040;15.294;2022-09-09T02:08:53;24.20;58.10
65038;DHT22;51605;47.040;15.294;2022-09-09T02:11:23;24.20;58.00
65038;DHT22;51605;47.040;15.294;2022-09-09T02:13:53;24.20;58.10
65038;DHT22;51605;47.040;15.294;2022-09-09T02:16:39;24.10;58.10
65038;DHT22;51605;47.040;15.294;2022-09-09T02:19:15;24.10;58.10
65038;DHT22;51605;47.040;15.294;2022-09-09T02:21:44;24.10;58.00
65038;DHT22;51605;47.040;15.294;2022-09-09T02:24:13;24.10;58.00
65038;DHT22;51605;47.040;15.294;2022-09-09T02:26:42;24.10;58.00
65038;DHT22;51605;47.040;15.294;2022-09-09T02:29:16;24.10;58.00
65038;DHT22;51605;47.040;15.294;2022-09-09T02:31:44;24.10;58.10
65038;DHT22;51605;47.040;15.294;2022-09-09T02:34:11;24.10;58.00
65038;DHT22;51605;47.040;15.294;2022-09-09T02:36:40;24.10;58.00
65038;DHT22;51605;47.040;15.294;2022-09-09T02:39:09;24.10;57.90
65038;DHT22;51605;47.040;15.294;2022-09-09T02:41:37;24.10;57.90
65038;DHT22;51605;47.040;15.294;2022-09-09T02:44:11;24.10;58.00
65038;DHT22;51605;47.040;15.294;2022-09-09T02:49:31;24.10;58.00
65038;DHT22;51605;47.040;15.294;2022-09-09T02:52:05;24.10;57.90
65038;DHT22;51605;47.040;15.294;2022-09-09T02:54:37;24.10;57.90
65038;DHT22;51605;47.040;15.294;2022-09-09T02:57:17;24.10;57.90
65038;DHT22;51605;47.040;15.294;2022-09-09T02:59:44;24.10;57.80
65038;DHT22;51605;47.040;15.294;2022-09-09T03:02:11;24.10;57.80
65038;DHT22;51605;47.040;15.294;2022-09-09T03:04:39;24.10;57.70
65038;DHT22;51605;47.040;15.294;2022-09-09T03:07:04;24.10;57.60
65038;DHT22;51605;47.040;15.294;2022-09-09T03:09:31;24.10;58.60
65038;DHT22;51605;47.040;15.294;2022-09-09T03:11:58;24.10;57.60
65038;DHT22;51605;47.040;15.294;2022-09-09T03:14:23;24.10;57.60
65038;DHT22;51605;47.040;15.294;2022-09-09T03:16:53;24.10;57.60
65038;DHT22;51605;47.040;15.294;2022-09-09T03:19:20;24.10;57.60
65038;DHT22;51605;47.040;15.294;2022-09-09T03:21:47;24.10;57.60
65038;DHT22;51605;47.040;15.294;2022-09-09T03:24:13;24.10;57.50
65038;DHT22;51605;47.040;15.294;2022-09-09T03:26:40;24.10;57.50
65038;DHT22;51605;47.040;15.294;2022-09-09T03:29:06;24.10;57.60
65038;DHT22;51605;47.040;15.294;2022-09-09T03:31:33;24.10;57.60
65038;DHT22;51605;47.040;15.294;2022-09-09T03:33:59;24.10;57.60
65038;DHT22;51605;47.040;15.294;2022-09-09T03:36:26;24.10;57.50
65038;DHT22;51605;47.040;15.294;2022-09-09T03:38:52;24.10;57.40
65038;DHT22;51605;47.040;15.294;2022-09-09T03:41:18;24.10;57.40
65038;DHT22;51605;47.040;15.294;2022-09-09T03:43:43;24.10;57.40
65038;DHT22;51605;47.040;15.294;2022-09-09T03:46:10;24.10;57.30
65038;DHT22;51605;47.040;15.294;2022-09-09T03:48:35;24.10;57.40
65038;DHT22;51605;47.040;15.294;2022-09-09T03:51:01;24.10;57.40
65038;DHT22;51605;47.040;15.294;2022-09-09T03:53:29;24.10;57.30
65038;DHT22;51605;47.040;15.294;2022-09-09T03:55:56;24.10;57.30
65038;DHT22;51605;47.040;15.294;2022-09-09T03:58:25;24.10;57.30
65038;DHT22;51605;47.040;15.294;2022-09-09T04:01:09;24.10;57.20
65038;DHT22;51605;47.040;15.294;2022-09-09T04:03:35;24.00;57.20
65038;DHT22;51605;47.040;15.294;2022-09-09T04:06:02;24.10;57.60
65038;DHT22;51605;47.040;15.294;2022-09-09T04:08:29;24.10;57.50
65038;DHT22;51605;47.040;15.294;2022-09-09T04:10:56;24.10;57.40
65038;DHT22;51605;47.040;15.294;2022-09-09T04:13:24;24.20;57.80
65038;DHT22;51605;47.040;15.294;2022-09-09T04:15:52;24.20;57.80
65038;DHT22;51605;47.040;15.294;2022-09-09T04:18:18;24.20;57.80
65038;DHT22;51605;47.040;15.294;2022-09-09T04:20:50;24.20;57.70
65038;DHT22;51605;47.040;15.294;2022-09-09T04:23:16;24.20;57.70
65038;DHT22;51605;47.040;15.294;2022-09-09T04:25:45;24.20;57.60
65038;DHT22;51605;47.040;15.294;2022-09-09T04:28:12;24.20;57.70
65038;DHT22;51605;47.040;15.294;2022-09-09T04:30:38;24.20;57.70
65038;DHT22;51605;47.040;15.294;2022-09-09T04:33:05;24.20;57.60
65038;DHT22;51605;47.040;15.294;2022-09-09T04:35:32;24.20;57.70
65038;DHT22;51605;47.040;15.294;2022-09-09T04:37:58;24.20;57.60
65038;DHT22;51605;47.040;15.294;2022-09-09T04:40:24;24.30;57.60
65038;DHT22;51605;47.040;15.294;2022-09-09T04:42:50;24.30;57.50
65038;DHT22;51605;47.040;15.294;2022-09-09T04:45:16;24.30;57.80
65038;DHT22;51605;47.040;15.294;2022-09-09T04:47:42;24.30;57.50
65038;DHT22;51605;47.040;15.294;2022-09-09T04:50:08;24.30;57.50
65038;DHT22;51605;47.040;15.294;2022-09-09T04:52:35;24.30;57.60
65038;DHT22;51605;47.040;15.294;2022-09-09T04:55:01;24.30;57.60
65038;DHT22;51605;47.040;15.294;2022-09-09T04:57:27;24.30;57.50
65038;DHT22;51605;47.040;15.294;2022-09-09T04:59:52;24.30;57.40
65038;DHT22;51605;47.040;15.294;2022-09-09T05:02:18;24.40;57.40
65038;DHT22;51605;47.040;15.294;2022-09-09T05:04:44;24.40;57.30
65038;DHT22;51605;47.040;15.294;2022-09-09T05:07:09;24.40;57.30
65038;DHT22;51605;47.040;15.294;2022-09-09T05:09:35;24.30;57.30
65038;DHT22;51605;47.040;15.294;2022-09-09T05:12:01;24.40;57.40
65038;DHT22;51605;47.040;15.294;2022-09-09T05:14:28;24.40;57.30
65038;DHT22;51605;47.040;15.294;2022-09-09T05:16:54;24.40;57.20
65038;DHT22;51605;47.040;15.294;2022-09-09T05:19:21;24.40;57.30
65038;DHT22;51605;47.040;15.294;2022-09-09T05:21:47;24.40;57.20
65038;DHT22;51605;47.040;15.294;2022-09-09T05:24:13;24.40;57.20
65038;DHT22;51605;47.040;15.294;2022-09-09T05:26:38;24.40;57.10
65038;DHT22;51605;47.040;15.294;2022-09-09T05:29:04;24.40;57.20
65038;DHT22;51605;47.040;15.294;2022-09-09T05:31:30;24.40;57.40
65038;DHT22;51605;47.040;15.294;2022-09-09T05:33:56;24.40;57.40
65038;DHT22;51605;47.040;15.294;2022-09-09T05:36:22;24.40;57.50
65038;DHT22;51605;47.040;15.294;2022-09-09T05:38:49;24.40;57.30
65038;DHT22;51605;47.040;15.294;2022-09-09T05:41:15;24.40;57.30
65038;DHT22;51605;47.040;15.294;2022-09-09T05:43:42;24.40;57.20
65038;DHT22;51605;47.040;15.294;2022-09-09T05:46:12;24.40;57.30
65038;DHT22;51605;47.040;15.294;2022-09-09T05:48:40;24.40;57.50
65038;DHT22;51605;47.040;15.294;2022-09-09T05:51:09;24.40;57.40
65038;DHT22;51605;47.040;15.294;2022-09-09T05:53:36;24.40;57.60
65038;DHT22;51605;47.040;15.294;2022-09-09T05:56:10;24.40;57.60
65038;DHT22;51605;47.040;15.294;2022-09-09T05:58:37;24.40;57.40
65038;DHT22;51605;47.040;15.294;2022-09-09T06:01:05;24.40;58.20
65038;DHT22;51605;47.040;15.294;2022-09-09T06:03:35;24.40;57.20
65038;DHT22;51605;47.040;15.294;2022-09-09T06:06:03;24.50;57.20
65038;DHT22;51605;47.040;15.294;2022-09-09T06:08:37;24.40;57.10
65038;DHT22;51605;47.040;15.294;2022-09-09T06:11:08;24.50;57.10
65038;DHT22;51605;47.040;15.294;2022-09-09T06:13:35;24.40;57.10
65038;DHT22;51605;47.040;15.294;2022-09-09T06:16:05;24.40;57.10
65038;DHT22;51605;47.040;15.294;2022-09-09T06:18:32;24.40;57.10
65038;DHT22;51605;47.040;15.294;2022-09-09T06:21:03;24.40;57.00
65038;DHT22;51605;47.040;15.294;2022-09-09T06:23:33;24.40;57.00
65038;DHT22;51605;47.040;15.294;2022-09-09T06:26:08;24.40;57.00
65038;DHT22;51605;47.040;15.294;2022-09-09T06:28:35;24.40;56.90
65038;DHT22;51605;47.040;15.294;2022-09-09T06:31:02;24.40;56.90
65038;DHT22;51605;47.040;15.294;2022-09-09T06:33:34;24.40;56.90
65038;DHT22;51605;47.040;15.294;2022-09-09T06:36:00;24.40;56.70
65038;DHT22;51605;47.040;15.294;2022-09-09T06:38:26;24.40;56.80
65038;DHT22;51605;47.040;15.294;2022-09-09T06:40:58;24.40;56.90
65038;DHT22;51605;47.040;15.294;2022-09-09T06:43:25;24.40;56.80
65038;DHT22;51605;47.040;15.294;2022-09-09T06:45:58;24.40;56.90
65038;DHT22;51605;47.040;15.294;2022-09-09T06:48:25;24.40;57.00
65038;DHT22;51605;47.040;15.294;2022-09-09T06:51:02;24.40;56.90
65038;DHT22;51605;47.040;15.294;2022-09-09T06:53:28;24.40;57.10
65038;DHT22;51605;47.040;15.294;2022-09-09T06:55:53;24.40;56.90
65038;DHT22;51605;47.040;15.294;2022-09-09T06:58:20;24.40;56.80
65038;DHT22;51605;47.040;15.294;2022-09-09T07:00:47;24.30;57.00
65038;DHT22;51605;47.040;15.294;2022-09-09T07:03:13;24.30;57.20
65038;DHT22;51605;47.040;15.294;2022-09-09T07:05:39;24.30;57.10
65038;DHT22;51605;47.040;15.294;2022-09-09T07:08:04;24.30;57.20
65038;DHT22;51605;47.040;15.294;2022-09-09T07:10:31;24.30;57.20
65038;DHT22;51605;47.040;15.294;2022-09-09T07:12:57;24.40;57.30
65038;DHT22;51605;47.040;15.294;2022-09-09T07:15:22;24.30;57.20
65038;DHT22;51605;47.040;15.294;2022-09-09T07:17:48;24.30;57.30
65038;DHT22;51605;47.040;15.294;2022-09-09T07:20:14;24.40;58.30
65038;DHT22;51605;47.040;15.294;2022-09-09T07:22:40;24.40;57.40
65038;DHT22;51605;47.040;15.294;2022-09-09T07:25:07;24.30;57.40
65038;DHT22;51605;47.040;15.294;2022-09-09T07:27:33;24.40;57.40
65038;DHT22;51605;47.040;15.294;2022-09-09T07:29:59;24.40;57.40
65038;DHT22;51605;47.040;15.294;2022-09-09T07:32:25;24.40;57.40
65038;DHT22;51605;47.040;15.294;2022-09-09T07:34:55;24.40;57.40
65038;DHT22;51605;47.040;15.294;2022-09-09T07:37:23;24.40;57.50
65038;DHT22;51605;47.040;15.294;2022-09-09T07:39:49;24.40;57.50
65038;DHT22;51605;47.040;15.294;2022-09-09T07:42:16;24.40;57.30
65038;DHT22;51605;47.040;15.294;2022-09-09T07:44:42;24.40;57.30
65038;DHT22;51605;47.040;15.294;2022-09-09T07:47:07;24.40;57.20
65038;DHT22;51605;47.040;15.294;2022-09-09T07:49:33;24.40;57.20
65038;DHT22;51605;47.040;15.294;2022-09-09T07:51:59;24.40;57.30
65038;DHT22;51605;47.040;15.294;2022-09-09T07:54:25;24.40;57.20
65038;DHT22;51605;47.040;15.294;2022-09-09T07:56:52;24.40;57.20
65038;DHT22;51605;47.040;15.294;2022-09-09T07:59:18;24.40;57.10
65038;DHT22;51605;47.040;15.294;2022-09-09T08:01:46;24.40;57.10
65038;DHT22;51605;47.040;15.294;2022-09-09T08:04:22;24.40;57.10
65038;DHT22;51605;47.040;15.294;2022-09-09T08:06:51;24.40;57.40
65038;DHT22;51605;47.040;15.294;2022-09-09T08:09:18;24.40;57.40
65038;DHT22;51605;47.040;15.294;2022-09-09T08:11:44;24.40;57.40
65038;DHT22;51605;47.040;15.294;2022-09-09T08:14:11;24.40;57.40
65038;DHT22;51605;47.040;15.294;2022-09-09T08:16:40;24.40;57.50
65038;DHT22;51605;47.040;15.294;2022-09-09T08:19:06;24.40;57.40
65038;DHT22;51605;47.040;15.294;2022-09-09T08:21:33;24.40;57.50
65038;DHT22;51605;47.040;15.294;2022-09-09T08:24:00;24.40;57.60
65038;DHT22;51605;47.040;15.294;2022-09-09T08:26:32;24.40;57.50
65038;DHT22;51605;47.040;15.294;2022-09-09T08:29:00;24.40;57.50
65038;DHT22;51605;47.040;15.294;2022-09-09T08:31:47;24.40;57.30
65038;DHT22;51605;47.040;15.294;2022-09-09T08:34:13;24.40;57.40
65038;DHT22;51605;47.040;15.294;2022-09-09T08:36:41;24.40;57.30
65038;DHT22;51605;47.040;15.294;2022-09-09T08:39:09;24.40;57.50
65038;DHT22;51605;47.040;15.294;2022-09-09T08:44:29;24.40;57.50
65038;DHT22;51605;47.040;15.294;2022-09-09T08:47:37;24.40;57.60
65038;DHT22;51605;47.040;15.294;2022-09-09T09:09:01;24.40;57.50
65038;DHT22;51605;47.040;15.294;2022-09-09T09:11:37;24.40;57.50
65038;DHT22;51605;47.040;15.294;2022-09-09T09:16:54;24.40;57.50
65038;DHT22;51605;47.040;15.294;2022-09-09T09:19:22;24.40;57.50
65038;DHT22;51605;47.040;15.294;2022-09-09T09:22:21;24.40;57.30
65038;DHT22;51605;47.040;15.294;2022-09-09T09:25:15;24.40;57.50
65038;DHT22;51605;47.040;15.294;2022-09-09T09:28:03;24.40;57.50
65038;DHT22;51605;47.040;15.294;2022-09-09T09:33:23;24.40;57.50
65038;DHT22;51605;47.040;15.294;2022-09-09T09:35:51;24.40;57.60
65038;DHT22;51605;47.040;15.294;2022-09-09T09:38:18;24.40;57.50
65038;DHT22;51605;47.040;15.294;2022-09-09T09:40:57;24.40;57.50
65038;DHT22;51605;47.040;15.294;2022-09-09T09:43:30;24.40;57.60
65038;DHT22;51605;47.040;15.294;2022-09-09T09:45:56;24.40;57.60
65038;DHT22;51605;47.040;15.294;2022-09-09T09:48:24;24.40;57.70
65038;DHT22;51605;47.040;15.294;2022-09-09T09:56:13;24.40;57.80
65038;DHT22;51605;47.040;15.294;2022-09-09T09:58:50;24.40;57.70
65038;DHT22;51605;47.040;15.294;2022-09-09T10:01:23;24.50;57.80
65038;DHT22;51605;47.040;15.294;2022-09-09T10:03:52;24.40;57.70
65038;DHT22;51605;47.040;15.294;2022-09-09T10:06:28;24.40;57.60
65038;DHT22;51605;47.040;15.294;2022-09-09T10:08:54;24.40;57.60
65038;DHT22;51605;47.040;15.294;2022-09-09T10:11:30;24.40;57.60
65038;DHT22;51605;47.040;15.294;2022-09-09T10:19:16;24.50;57.60
65038;DHT22;51605;47.040;15.294;2022-09-09T10:32:49;24.50;57.20
65038;DHT22;51605;47.040;15.294;2022-09-09T10:35:58;24.50;57.20
65038;DHT22;51605;47.040;15.294;2022-09-09T10:38:42;24.40;57.30
65038;DHT22;51605;47.040;15.294;2022-09-09T10:55:24;24.40;57.60
65038;DHT22;51605;47.040;15.294;2022-09-09T10:57:58;24.40;57.70
65038;DHT22;51605;47.040;15.294;2022-09-09T11:03:04;24.40;57.70
65038;DHT22;51605;47.040;15.294;2022-09-09T11:06:04;24.40;57.60
65038;DHT22;51605;47.040;15.294;2022-09-09T11:08:32;24.40;57.80
65038;DHT22;51605;47.040;15.294;2022-09-09T11:14:01;24.40;57.80
65038;DHT22;51605;47.040;15.294;2022-09-09T11:16:49;24.40;57.70
65038;DHT22;51605;47.040;15.294;2022-09-09T11:24:45;24.40;57.80
65038;DHT22;51605;47.040;15.294;2022-09-09T11:40:43;24.40;57.80
65038;DHT22;51605;47.040;15.294;2022-09-09T11:43:12;24.40;58.00
65038;DHT22;51605;47.040;15.294;2022-09-09T11:45:41;24.40;57.90
65038;DHT22;51605;47.040;15.294;2022-09-09T11:48:33;24.50;58.00
65038;DHT22;51605;47.040;15.294;2022-09-09T11:51:08;24.40;57.90
65038;DHT22;51605;47.040;15.294;2022-09-09T11:53:36;24.50;57.70
65038;DHT22;51605;47.040;15.294;2022-09-09T11:56:13;24.50;57.60
65038;DHT22;51605;47.040;15.294;2022-09-09T11:59:21;24.50;57.60
65038;DHT22;51605;47.040;15.294;2022-09-09T12:04:48;24.40;57.60
65038;DHT22;51605;47.040;15.294;2022-09-09T12:07:41;24.40;57.50
65038;DHT22;51605;47.040;15.294;2022-09-09T12:10:34;24.40;57.60
65038;DHT22;51605;47.040;15.294;2022-09-09T12:13:36;24.50;57.50
65038;DHT22;51605;47.040;15.294;2022-09-09T12:16:02;24.40;57.40
65038;DHT22;51605;47.040;15.294;2022-09-09T12:18:35;24.40;57.40
65038;DHT22;51605;47.040;15.294;2022-09-09T12:21:46;24.40;57.50
65038;DHT22;51605;47.040;15.294;2022-09-09T12:24:27;24.40;57.50
65038;DHT22;51605;47.040;15.294;2022-09-09T12:27:40;24.40;57.30
65038;DHT22;51605;47.040;15.294;2022-09-09T12:30:12;24.40;57.30
65038;DHT22;51605;47.040;15.294;2022-09-09T12:32:40;24.40;57.10
65038;DHT22;51605;47.040;15.294;2022-09-09T12:35:13;24.40;57.10
65038;DHT22;51605;47.040;15.294;2022-09-09T12:40:22;24.40;57.30
65038;DHT22;51605;47.040;15.294;2022-09-09T12:42:48;24.40;57.30
65038;DHT22;51605;47.040;15.294;2022-09-09T12:48:10;24.40;57.30
65038;DHT22;51605;47.040;15.294;2022-09-09T12:50:57;24.40;57.50
65038;DHT22;51605;47.040;15.294;2022-09-09T12:53:26;24.40;57.50
65038;DHT22;51605;47.040;15.294;2022-09-09T12:56:04;24.40;57.60
65038;DHT22;51605;47.040;15.294;2022-09-09T12:58:31;24.40;57.60
65038;DHT22;51605;47.040;15.294;2022-09-09T13:01:02;24.40;57.60
65038;DHT22;51605;47.040;15.294;2022-09-09T13:03:31;24.40;57.70
65038;DHT22;51605;47.040;15.294;2022-09-09T13:06:09;24.40;57.70
65038;DHT22;51605;47.040;15.294;2022-09-09T13:08:36;24.30;57.70
65038;DHT22;51605;47.040;15.294;2022-09-09T13:11:06;24.30;57.60
65038;DHT22;51605;47.040;15.294;2022-09-09T13:13:36;24.30;57.60
65038;DHT22;51605;47.040;15.294;2022-09-09T13:16:04;24.30;58.60
65038;DHT22;51605;47.040;15.294;2022-09-09T13:18:34;24.30;57.80
65038;DHT22;51605;47.040;15.294;2022-09-09T13:21:01;24.30;57.70
65038;DHT22;51605;47.040;15.294;2022-09-09T13:23:30;24.30;57.70
65038;DHT22;51605;47.040;15.294;2022-09-09T13:26:02;24.30;57.70
65038;DHT22;51605;47.040;15.294;2022-09-09T13:28:30;24.30;57.80
65038;DHT22;51605;47.040;15.294;2022-09-09T13:31:01;24.20;57.70
65038;DHT22;51605;47.040;15.294;2022-09-09T13:33:32;24.20;57.80
65038;DHT22;51605;47.040;15.294;2022-09-09T13:36:01;24.20;57.80
65038;DHT22;51605;47.040;15.294;2022-09-09T13:38:31;24.20;57.80
65038;DHT22;51605;47.040;15.294;2022-09-09T13:41:05;24.20;57.80
65038;DHT22;51605;47.040;15.294;2022-09-09T13:43:45;24.20;57.70
65038;DHT22;51605;47.040;15.294;2022-09-09T13:46:27;24.20;57.70
65038;DHT22;51605;47.040;15.294;2022-09-09T13:48:56;24.20;58.70
65038;DHT22;51605;47.040;15.294;2022-09-09T13:51:47;24.20;57.80
65038;DHT22;51605;47.040;15.294;2022-09-09T13:54:16;24.20;58.00
65038;DHT22;51605;47.040;15.294;2022-09-09T13:56:43;24.20;58.00
65038;DHT22;51605;47.040;15.294;2022-09-09T13:59:15;24.20;58.20
65038;DHT22;51605;47.040;15.294;2022-09-09T14:01:41;24.20;58.20
65038;DHT22;51605;47.040;15.294;2022-09-09T14:04:07;24.10;58.20
65038;DHT22;51605;47.040;15.294;2022-09-09T14:06:34;24.10;58.30
65038;DHT22;51605;47.040;15.294;2022-09-09T14:09:03;24.10;58.30
65038;DHT22;51605;47.040;15.294;2022-09-09T14:11:28;24.10;58.20
65038;DHT22;51605;47.040;15.294;2022-09-09T14:13:54;24.10;58.30
65038;DHT22;51605;47.040;15.294;2022-09-09T14:16:19;24.20;58.40
65038;DHT22;51605;47.040;15.294;2022-09-09T14:18:47;24.20;58.30
65038;DHT22;51605;47.040;15.294;2022-09-09T14:21:14;24.20;58.30
65038;DHT22;51605;47.040;15.294;2022-09-09T14:23:41;24.20;58.40
65038;DHT22;51605;47.040;15.294;2022-09-09T14:26:07;24.20;58.30
65038;DHT22;51605;47.040;15.294;2022-09-09T14:28:33;24.20;58.30
65038;DHT22;51605;47.040;15.294;2022-09-09T14:31:01;24.20;58.30
65038;DHT22;51605;47.040;15.294;2022-09-09T14:33:27;24.20;58.30
65038;DHT22;51605;47.040;15.294;2022-09-09T14:36:02;24.20;58.20
65038;DHT22;51605;47.040;15.294;2022-09-09T14:38:33;24.20;58.10
65038;DHT22;51605;47.040;15.294;2022-09-09T14:41:00;24.20;58.20
65038;DHT22;51605;47.040;15.294;2022-09-09T14:43:29;24.20;58.20
65038;DHT22;51605;47.040;15.294;2022-09-09T14:45:55;24.20;58.30
65038;DHT22;51605;47.040;15.294;2022-09-09T14:48:21;24.20;58.30
65038;DHT22;51605;47.040;15.294;2022-09-09T14:50:46;24.20;58.20
65038;DHT22;51605;47.040;15.294;2022-09-09T14:53:12;24.20;58.20
65038;DHT22;51605;47.040;15.294;2022-09-09T14:55:38;24.20;58.30
65038;DHT22;51605;47.040;15.294;2022-09-09T14:58:04;24.20;58.30
65038;DHT22;51605;47.040;15.294;2022-09-09T15:00:30;24.10;58.30
65038;DHT22;51605;47.040;15.294;2022-09-09T15:02:56;24.10;58.40
65038;DHT22;51605;47.040;15.294;2022-09-09T15:05:22;24.20;59.00
65038;DHT22;51605;47.040;15.294;2022-09-09T15:07:47;24.20;59.00
65038;DHT22;51605;47.040;15.294;2022-09-09T15:10:14;24.20;58.90
65038;DHT22;51605;47.040;15.294;2022-09-09T15:12:40;24.20;59.00
65038;DHT22;51605;47.040;15.294;2022-09-09T15:15:07;24.30;59.00
65038;DHT22;51605;47.040;15.294;2022-09-09T15:17:33;24.30;59.20
65038;DHT22;51605;47.040;15.294;2022-09-09T15:19:59;24.50;59.10
65038;DHT22;51605;47.040;15.294;2022-09-09T15:22:25;24.50;59.10
65038;DHT22;51605;47.040;15.294;2022-09-09T15:24:51;24.60;59.20
65038;DHT22;51605;47.040;15.294;2022-09-09T15:27:17;24.60;59.10
65038;DHT22;51605;47.040;15.294;2022-09-09T15:29:43;24.70;58.90
65038;DHT22;51605;47.040;15.294;2022-09-09T15:32:10;24.70;58.80
65038;DHT22;51605;47.040;15.294;2022-09-09T15:34:35;24.80;58.70
65038;DHT22;51605;47.040;15.294;2022-09-09T15:37:01;24.80;58.50
65038;DHT22;51605;47.040;15.294;2022-09-09T15:39:27;24.90;58.50
65038;DHT22;51605;47.040;15.294;2022-09-09T15:41:52;24.90;58.20
65038;DHT22;51605;47.040;15.294;2022-09-09T15:44:18;24.90;58.10
65038;DHT22;51605;47.040;15.294;2022-09-09T15:46:50;24.90;58.20
65038;DHT22;51605;47.040;15.294;2022-09-09T15:49:24;24.90;58.10
65038;DHT22;51605;47.040;15.294;2022-09-09T15:52:10;24.90;58.00
65038;DHT22;51605;47.040;15.294;2022-09-09T15:54:36;24.80;58.20
65038;DHT22;51605;47.040;15.294;2022-09-09T15:57:05;24.80;58.30
65038;DHT22;51605;47.040;15.294;2022-09-09T15:59:31;24.70;58.30
65038;DHT22;51605;47.040;15.294;2022-09-09T16:01:57;24.70;58.50
65038;DHT22;51605;47.040;15.294;2022-09-09T16:04:25;24.70;58.50
65038;DHT22;51605;47.040;15.294;2022-09-09T16:07:02;24.70;58.60
65038;DHT22;51605;47.040;15.294;2022-09-09T16:09:29;24.60;58.70
65038;DHT22;51605;47.040;15.294;2022-09-09T16:11:56;24.60;58.80
65038;DHT22;51605;47.040;15.294;2022-09-09T16:14:23;24.60;58.80
65038;DHT22;51605;47.040;15.294;2022-09-09T16:16:51;24.60;58.70
65038;DHT22;51605;47.040;15.294;2022-09-09T16:19:16;24.60;58.80
65038;DHT22;51605;47.040;15.294;2022-09-09T16:21:46;24.50;58.80
65038;DHT22;51605;47.040;15.294;2022-09-09T16:24:15;24.50;58.90
65038;DHT22;51605;47.040;15.294;2022-09-09T16:26:45;24.50;59.00
65038;DHT22;51605;47.040;15.294;2022-09-09T16:29:12;24.50;59.00
65038;DHT22;51605;47.040;15.294;2022-09-09T16:31:40;24.50;59.10
65038;DHT22;51605;47.040;15.294;2022-09-09T16:34:06;24.40;59.10
65038;DHT22;51605;47.040;15.294;2022-09-09T16:36:33;24.40;59.10
65038;DHT22;51605;47.040;15.294;2022-09-09T16:39:01;24.40;59.10
65038;DHT22;51605;47.040;15.294;2022-09-09T16:41:29;24.40;59.10
65038;DHT22;51605;47.040;15.294;2022-09-09T16:43:55;24.40;59.10
65038;DHT22;51605;47.040;15.294;2022-09-09T16:46:21;24.40;59.10
65038;DHT22;51605;47.040;15.294;2022-09-09T16:48:48;24.40;59.10
65038;DHT22;51605;47.040;15.294;2022-09-09T16:51:17;24.40;59.10
65038;DHT22;51605;47.040;15.294;2022-09-09T16:53:43;24.40;59.10
65038;DHT22;51605;47.040;15.294;2022-09-09T16:56:30;24.40;59.10
65038;DHT22;51605;47.040;15.294;2022-09-09T16:59:03;24.30;59.00
65038;DHT22;51605;47.040;15.294;2022-09-09T17:01:30;24.40;59.10
65038;DHT22;51605;47.040;15.294;2022-09-09T17:04:00;24.30;59.00
65038;DHT22;51605;47.040;15.294;2022-09-09T17:06:30;24.40;59.10
65038;DHT22;51605;47.040;15.294;2022-09-09T17:08:56;24.30;59.10
65038;DHT22;51605;47.040;15.294;2022-09-09T17:11:22;24.30;59.10
65038;DHT22;51605;47.040;15.294;2022-09-09T17:13:49;24.30;59.10
65038;DHT22;51605;47.040;15.294;2022-09-09T17:16:17;24.30;59.00
65038;DHT22;51605;47.040;15.294;2022-09-09T17:18:43;24.30;59.00
65038;DHT22;51605;47.040;15.294;2022-09-09T17:21:15;24.30;59.00
65038;DHT22;51605;47.040;15.294;2022-09-09T17:23:42;24.30;59.10
65038;DHT22;51605;47.040;15.294;2022-09-09T17:26:10;24.30;59.10
65038;DHT22;51605;47.040;15.294;2022-09-09T17:28:38;24.30;59.20
65038;DHT22;51605;47.040;15.294;2022-09-09T17:31:05;24.30;59.20
65038;DHT22;51605;47.040;15.294;2022-09-09T17:33:33;24.30;59.20
65038;DHT22;51605;47.040;15.294;2022-09-09T17:36:02;24.30;59.10